Time;durP1;ratioP1;P1;durP2;ratioP2;P2;SDS_P1;SDS_P2;PMS_P1;PMS_P2;Temp;Humidity;BMP_temperature;BMP_pressure;BME280_temperature;BME280_humidity;BME280_pressure;Samples;Min_cycle;Max_cycle;Signal;HPM_P1;HPM_P2
2022/05/15 00:00:50;;;;;;;4.27;1.70;;;11.30;99.90;;;;;;5106983;28;20273;-67
2022/05/15 00:03:22;;;;;;;3.40;1.97;;;11.20;99.90;;;;;;5106159;28;20425;-68
2022/05/15 00:05:57;;;;;;;3.70;1.57;;;11.20;99.90;;;;;;5106155;28;20252;-66
2022/05/15 00:08:24;;;;;;;8.13;1.97;;;11.10;99.90;;;;;;5105721;28;20452;-68
2022/05/15 00:10:50;;;;;;;2.20;1.30;;;11.10;99.90;;;;;;5106436;28;20557;-67
2022/05/15 00:13:17;;;;;;;3.33;1.70;;;11.10;99.90;;;;;;5077867;28;20529;-67
2022/05/15 00:15:43;;;;;;;3.90;1.87;;;11.10;99.90;;;;;;5106507;28;20539;-66
2022/05/15 00:18:09;;;;;;;3.93;1.90;;;11.10;99.90;;;;;;5106542;28;20501;-67
2022/05/15 00:20:37;;;;;;;3.70;1.47;;;11.00;99.90;;;;;;5088125;28;20689;-67
2022/05/15 00:23:03;;;;;;;3.30;1.03;;;11.00;99.90;;;;;;5074227;28;20913;-65
2022/05/15 00:25:29;;;;;;;2.27;1.20;;;11.00;99.90;;;;;;5105447;28;20490;-69
2022/05/15 00:27:54;;;;;;;2.57;1.40;;;11.00;99.90;;;;;;5106000;28;20421;-67
2022/05/15 00:30:21;;;;;;;3.43;1.50;;;10.90;99.90;;;;;;5105899;28;20213;-67
2022/05/15 00:32:47;;;;;;;2.60;1.30;;;11.00;99.90;;;;;;5109218;28;20194;-68
2022/05/15 00:35:13;;;;;;;9.43;1.37;;;10.90;99.90;;;;;;5110930;28;20459;-68
2022/05/15 00:37:39;;;;;;;5.00;1.57;;;10.80;99.90;;;;;;5109617;28;20827;-66
2022/05/15 00:40:07;;;;;;;3.20;1.77;;;10.80;99.90;;;;;;5111083;28;20179;-67
2022/05/15 00:42:33;;;;;;;5.43;2.57;;;10.80;99.90;;;;;;5110601;28;20187;-65
2022/05/15 00:44:59;;;;;;;4.17;1.90;;;10.70;99.90;;;;;;5110716;28;20938;-67
2022/05/15 00:47:24;;;;;;;3.70;1.80;;;10.60;99.90;;;;;;5109785;28;20187;-66
2022/05/15 00:49:51;;;;;;;6.80;2.60;;;10.60;99.90;;;;;;5110998;28;20266;-66
2022/05/15 00:52:22;;;;;;;3.67;1.77;;;10.60;99.90;;;;;;5109748;28;20656;-69
2022/05/15 00:55:02;;;;;;;4.40;2.30;;;10.50;99.90;;;;;;5110757;28;20414;-68
2022/05/15 00:57:39;;;;;;;3.67;2.00;;;10.50;99.90;;;;;;5110418;28;20413;-67
2022/05/15 01:00:07;;;;;;;5.17;2.00;;;10.50;99.90;;;;;;5110787;28;20413;-70
2022/05/15 01:02:38;;;;;;;5.03;2.47;;;10.50;99.90;;;;;;5109348;28;20462;-70
2022/05/15 01:05:05;;;;;;;8.40;2.73;;;10.60;99.90;;;;;;5110380;28;21029;-67
2022/05/15 01:07:30;;;;;;;6.93;2.47;;;10.50;99.90;;;;;;5109278;28;20425;-70
2022/05/15 01:09:58;;;;;;;6.20;1.77;;;10.50;99.90;;;;;;5110048;28;20464;-68
2022/05/15 01:12:24;;;;;;;4.87;1.83;;;10.50;99.90;;;;;;5109395;28;20562;-67
2022/05/15 01:14:50;;;;;;;4.00;1.93;;;10.50;99.90;;;;;;5109753;28;20425;-69
2022/05/15 01:17:16;;;;;;;5.30;1.70;;;10.50;99.90;;;;;;5109473;28;20199;-67
2022/05/15 01:19:43;;;;;;;7.73;2.13;;;10.40;99.90;;;;;;5109923;28;20456;-67
2022/05/15 01:22:11;;;;;;;6.73;2.60;;;10.40;99.90;;;;;;5108527;28;20180;-67
2022/05/15 01:24:37;;;;;;;3.80;1.77;;;10.40;99.90;;;;;;5109846;28;20436;-67
2022/05/15 01:27:07;;;;;;;4.87;2.00;;;10.40;99.90;;;;;;5109410;28;20420;-67
2022/05/15 01:29:38;;;;;;;3.23;1.53;;;10.30;99.90;;;;;;5109804;28;20516;-67
2022/05/15 01:32:04;;;;;;;2.70;1.10;;;10.40;99.90;;;;;;5095734;28;20428;-68
2022/05/15 01:34:30;;;;;;;3.70;1.80;;;10.30;99.90;;;;;;5077160;28;20502;-68
2022/05/15 01:36:59;;;;;;;3.67;1.93;;;10.30;99.90;;;;;;5108297;28;20438;-68
2022/05/15 01:39:25;;;;;;;5.00;2.20;;;10.20;99.90;;;;;;5090948;28;20460;-67
2022/05/15 01:41:51;;;;;;;3.47;2.00;;;10.10;99.90;;;;;;5109164;28;20426;-68
2022/05/15 01:44:17;;;;;;;2.43;1.50;;;10.20;99.90;;;;;;5109482;28;20424;-67
2022/05/15 01:46:42;;;;;;;3.23;1.50;;;10.10;99.90;;;;;;5108971;28;20286;-68
2022/05/15 01:49:08;;;;;;;3.00;1.57;;;10.10;99.90;;;;;;5108979;28;20552;-67
2022/05/15 01:51:37;;;;;;;2.10;1.20;;;10.20;99.90;;;;;;5108458;28;20628;-67
2022/05/15 01:54:03;;;;;;;3.03;1.30;;;10.20;99.90;;;;;;5109051;28;20500;-66
2022/05/15 01:56:30;;;;;;;2.13;1.23;;;10.20;99.90;;;;;;5109016;28;20441;-68
2022/05/15 01:58:57;;;;;;;3.60;1.77;;;10.20;99.90;;;;;;5108887;28;20464;-67
2022/05/15 02:01:23;;;;;;;2.90;1.60;;;10.10;99.90;;;;;;5108620;28;20925;-67
2022/05/15 02:03:49;;;;;;;2.67;1.50;;;10.10;99.90;;;;;;5108682;28;20462;-67
2022/05/15 02:06:14;;;;;;;3.83;1.80;;;9.90;99.90;;;;;;5108174;28;20437;-67
2022/05/15 02:08:40;;;;;;;2.70;1.57;;;9.90;99.90;;;;;;5108220;28;20271;-68
2022/05/15 02:11:06;;;;;;;2.80;1.30;;;9.90;99.90;;;;;;5108621;28;20184;-67
2022/05/15 02:13:32;;;;;;;4.63;1.60;;;9.90;99.90;;;;;;5108687;28;20191;-66
2022/05/15 02:15:57;;;;;;;9.33;1.97;;;9.80;99.90;;;;;;5108430;28;20441;-68
2022/05/15 02:18:23;;;;;;;3.17;1.57;;;9.70;99.90;;;;;;5108422;28;20183;-67
2022/05/15 02:20:49;;;;;;;2.10;1.00;;;9.70;99.90;;;;;;5082659;28;20801;-67
2022/05/15 02:23:15;;;;;;;2.63;1.50;;;9.70;99.90;;;;;;5102154;28;20198;-66
2022/05/15 02:25:41;;;;;;;4.20;1.50;;;9.70;99.90;;;;;;5090107;28;20856;-68
2022/05/15 02:28:08;;;;;;;3.40;1.33;;;9.70;99.90;;;;;;5107913;28;20176;-68
2022/05/15 02:30:34;;;;;;;8.03;1.70;;;9.60;99.90;;;;;;5089743;28;20481;-66
2022/05/15 02:32:59;;;;;;;5.00;1.83;;;9.60;99.90;;;;;;5108039;28;20826;-67
2022/05/15 02:35:25;;;;;;;2.30;1.40;;;9.60;99.90;;;;;;5108265;28;20210;-67
2022/05/15 02:37:51;;;;;;;2.57;1.57;;;9.60;99.90;;;;;;5107127;28;20183;-67
2022/05/15 02:40:19;;;;;;;4.80;1.47;;;9.60;99.90;;;;;;5108248;28;20473;-67
2022/05/15 02:42:45;;;;;;;3.27;1.77;;;9.60;99.90;;;;;;5107764;28;20656;-68
2022/05/15 02:45:12;;;;;;;3.33;1.60;;;9.50;99.90;;;;;;5108411;28;20437;-67
2022/05/15 02:47:38;;;;;;;5.40;1.53;;;9.50;99.90;;;;;;5107346;28;20653;-67
2022/05/15 02:52:49;;;;;;;2.43;1.47;;;9.50;99.90;;;;;;5106701;28;20889;-68
2022/05/15 02:55:15;;;;;;;5.30;1.67;;;9.50;99.90;;;;;;5107158;28;20441;-68
2022/05/15 02:57:42;;;;;;;3.97;2.03;;;9.40;99.90;;;;;;5107398;28;20180;-68
2022/05/15 03:00:09;;;;;;;6.07;1.90;;;9.50;99.90;;;;;;5107898;28;20298;-68
2022/05/15 03:02:39;;;;;;;3.33;1.77;;;9.40;99.90;;;;;;5107430;28;20410;-68
2022/05/15 03:05:06;;;;;;;6.17;2.13;;;9.40;99.90;;;;;;5089391;28;20924;-69
2022/05/15 03:07:32;;;;;;;2.10;1.30;;;9.30;99.90;;;;;;5106356;28;20795;-67
2022/05/15 03:09:58;;;;;;;3.90;1.90;;;9.30;99.90;;;;;;5108151;28;20420;-67
2022/05/15 03:12:24;;;;;;;3.50;1.40;;;9.30;99.90;;;;;;5107566;28;20462;-67
2022/05/15 03:14:49;;;;;;;3.07;1.50;;;9.30;99.90;;;;;;5107095;28;21024;-67
2022/05/15 03:17:16;;;;;;;4.27;1.87;;;9.30;99.90;;;;;;5106764;28;20266;-68
2022/05/15 03:19:43;;;;;;;2.00;1.30;;;9.30;99.90;;;;;;5107087;28;20200;-68
2022/05/15 03:22:09;;;;;;;3.60;1.80;;;9.30;99.90;;;;;;5106079;28;20425;-67
2022/05/15 03:24:35;;;;;;;5.33;1.90;;;9.30;99.90;;;;;;5107552;28;20413;-68
2022/05/15 03:27:00;;;;;;;2.20;1.10;;;9.20;99.90;;;;;;5105809;28;20191;-66
2022/05/15 03:29:27;;;;;;;3.37;1.37;;;9.20;99.90;;;;;;5107305;28;20548;-67
2022/05/15 03:31:53;;;;;;;3.37;1.60;;;9.30;99.90;;;;;;5106787;28;20424;-67
2022/05/15 03:34:19;;;;;;;2.20;1.30;;;9.30;99.90;;;;;;5107146;28;20504;-66
2022/05/15 03:36:48;;;;;;;2.00;1.30;;;9.20;99.90;;;;;;5106077;28;20208;-68
2022/05/15 03:39:15;;;;;;;5.33;1.60;;;9.20;99.90;;;;;;5106980;28;20457;-67
2022/05/15 03:41:42;;;;;;;3.27;1.73;;;9.20;99.90;;;;;;5106291;28;20805;-66
2022/05/15 03:44:08;;;;;;;6.43;1.90;;;9.20;99.90;;;;;;5106691;28;20425;-67
2022/05/15 03:46:35;;;;;;;5.13;1.47;;;9.10;99.90;;;;;;5106009;28;20486;-66
2022/05/15 03:49:00;;;;;;;1.93;1.23;;;9.20;99.90;;;;;;5106550;28;20413;-68
2022/05/15 03:51:26;;;;;;;2.80;1.20;;;9.20;99.90;;;;;;5105777;28;20818;-68
2022/05/15 03:53:52;;;;;;;3.03;1.50;;;9.30;99.90;;;;;;5106603;28;20558;-68
2022/05/15 03:56:49;;;;;;;14.93;1.70;;;9.30;99.90;;;;;;5106386;28;20621;-67
2022/05/15 03:59:04;;;;;;;2.20;1.07;;;9.30;99.90;;;;;;5101910;28;20689;-69
2022/05/15 04:01:30;;;;;;;3.73;1.63;;;9.20;99.90;;;;;;5106330;28;20418;-67
2022/05/15 04:03:57;;;;;;;2.93;1.60;;;9.20;99.90;;;;;;5106825;28;20654;-66
2022/05/15 04:06:23;;;;;;;4.70;1.83;;;9.10;99.90;;;;;;5105354;28;20210;-68
2022/05/15 04:08:51;;;;;;;2.43;1.10;;;9.20;99.90;;;;;;5106379;28;20421;-67
2022/05/15 04:11:17;;;;;;;3.77;1.50;;;9.20;99.90;;;;;;5106444;28;20188;-68
2022/05/15 04:13:43;;;;;;;3.20;1.33;;;9.20;99.90;;;;;;5105791;28;20867;-67
2022/05/15 04:16:09;;;;;;;4.17;1.20;;;9.20;99.90;;;;;;5106140;28;20473;-67
2022/05/15 04:18:35;;;;;;;2.37;1.27;;;9.20;99.90;;;;;;5106527;28;20452;-69
2022/05/15 04:21:01;;;;;;;2.30;1.33;;;9.30;99.90;;;;;;5106498;28;20858;-67
2022/05/15 04:23:27;;;;;;;2.73;1.60;;;9.30;99.90;;;;;;5106168;28;20203;-67
2022/05/15 04:25:53;;;;;;;4.10;1.73;;;9.30;99.90;;;;;;5106364;28;20434;-67
2022/05/15 04:28:18;;;;;;;4.10;1.70;;;9.40;99.90;;;;;;5105797;28;20269;-69
2022/05/15 04:30:44;;;;;;;4.73;2.03;;;9.40;99.90;;;;;;5106453;28;20183;-68
2022/05/15 04:33:10;;;;;;;4.47;1.97;;;9.40;99.90;;;;;;5106020;28;20561;-67
2022/05/15 04:35:35;;;;;;;2.50;1.17;;;9.40;99.90;;;;;;5106147;28;20678;-67
2022/05/15 04:38:01;;;;;;;6.10;1.67;;;9.50;99.90;;;;;;5105141;28;20183;-68
2022/05/15 04:40:26;;;;;;;5.20;1.53;;;9.50;99.90;;;;;;5106433;28;20341;-68
2022/05/15 04:42:52;;;;;;;5.00;1.80;;;9.50;99.90;;;;;;5105104;28;20183;-68
2022/05/15 04:45:18;;;;;;;2.63;1.53;;;9.50;99.90;;;;;;5106256;28;20582;-67
2022/05/15 04:47:45;;;;;;;2.53;1.37;;;9.60;99.90;;;;;;5104944;28;20208;-67
2022/05/15 04:50:12;;;;;;;3.60;1.43;;;9.60;99.90;;;;;;5106304;28;20207;-67
2022/05/15 04:52:37;;;;;;;3.00;1.20;;;9.70;99.90;;;;;;5104710;28;20445;-68
2022/05/15 04:55:03;;;;;;;3.60;1.80;;;9.70;99.90;;;;;;5106353;28;20445;-67
2022/05/15 04:57:29;;;;;;;6.50;1.77;;;9.80;99.90;;;;;;5105661;28;20738;-67
2022/05/15 04:59:55;;;;;;;3.67;1.30;;;9.90;99.90;;;;;;5105834;28;20200;-67
2022/05/15 05:02:20;;;;;;;8.33;1.37;;;10.00;99.90;;;;;;5105758;28;20180;-67
2022/05/15 05:04:46;;;;;;;3.70;1.60;;;10.10;99.90;;;;;;5105879;28;20188;-68
2022/05/15 05:07:11;;;;;;;3.13;1.60;;;10.20;99.90;;;;;;5105305;28;20571;-67
2022/05/15 05:09:37;;;;;;;2.20;0.97;;;10.30;99.90;;;;;;5105484;28;20346;-68
2022/05/15 05:12:03;;;;;;;3.27;1.67;;;10.40;99.90;;;;;;5105596;28;20259;-66
2022/05/15 05:14:29;;;;;;;3.70;1.40;;;10.50;99.90;;;;;;5105831;28;20188;-67
2022/05/15 05:16:54;;;;;;;2.20;1.20;;;10.60;99.90;;;;;;5105137;28;20249;-68
2022/05/15 05:19:20;;;;;;;4.00;1.57;;;10.70;99.90;;;;;;5109571;28;20702;-67
2022/05/15 05:21:45;;;;;;;2.80;1.20;;;10.80;99.90;;;;;;5109089;28;20184;-67
2022/05/15 05:24:11;;;;;;;3.57;1.70;;;10.90;99.90;;;;;;5109022;28;20198;-68
2022/05/15 05:26:36;;;;;;;4.47;1.13;;;11.00;99.90;;;;;;5109198;28;20267;-67
2022/05/15 05:29:03;;;;;;;3.50;1.70;;;11.00;99.90;;;;;;5109656;28;20240;-68
2022/05/15 05:31:29;;;;;;;3.40;1.70;;;11.10;99.90;;;;;;5104652;28;20627;-69
2022/05/15 05:33:55;;;;;;;8.93;2.70;;;11.20;99.90;;;;;;5109474;28;20976;-67
2022/05/15 05:36:21;;;;;;;5.13;1.80;;;11.30;99.90;;;;;;5108502;28;20207;-65
2022/05/15 05:38:46;;;;;;;8.43;1.90;;;11.40;99.90;;;;;;5109046;28;20218;-65
2022/05/15 05:41:12;;;;;;;6.50;1.60;;;11.50;99.90;;;;;;5109143;28;20182;-67
2022/05/15 05:43:38;;;;;;;2.60;1.70;;;11.60;99.90;;;;;;5108566;28;20203;-68
2022/05/15 05:46:04;;;;;;;3.10;1.70;;;11.70;99.90;;;;;;5108837;28;20476;-68
2022/05/15 05:48:30;;;;;;;2.93;1.40;;;11.80;99.90;;;;;;5107912;28;20508;-67
2022/05/15 05:50:55;;;;;;;3.03;1.80;;;11.90;99.90;;;;;;5109239;28;20984;-68
2022/05/15 05:53:21;;;;;;;5.27;1.93;;;12.00;99.90;;;;;;5109923;28;20662;-67
2022/05/15 05:55:47;;;;;;;5.30;2.17;;;12.20;99.90;;;;;;5108738;28;20200;-67
2022/05/15 05:58:12;;;;;;;3.53;1.80;;;12.30;99.90;;;;;;5108640;28;20519;-68
2022/05/15 06:00:38;;;;;;;3.50;1.83;;;12.40;99.90;;;;;;5108524;28;20581;-67
2022/05/15 06:05:49;;;;;;;3.20;1.57;;;12.60;99.90;;;;;;5108356;28;20681;-68
2022/05/15 06:08:15;;;;;;;2.60;1.70;;;12.70;99.90;;;;;;5108224;28;20455;-68
2022/05/15 06:10:41;;;;;;;4.23;1.90;;;12.80;99.90;;;;;;5108900;28;20800;-68
2022/05/15 06:13:08;;;;;;;3.63;1.90;;;13.00;99.90;;;;;;5108574;28;20802;-68
2022/05/15 06:15:35;;;;;;;6.03;1.93;;;13.10;99.90;;;;;;5108454;28;20497;-67
2022/05/15 06:18:02;;;;;;;3.50;1.70;;;13.30;99.90;;;;;;5108081;28;20417;-67
2022/05/15 06:20:28;;;;;;;6.37;2.27;;;13.40;99.90;;;;;;5108472;28;20583;-66
2022/05/15 06:22:54;;;;;;;8.03;2.13;;;13.60;99.90;;;;;;5107664;28;20414;-67
2022/05/15 06:25:20;;;;;;;6.60;2.10;;;13.80;99.90;;;;;;5108075;28;20453;-67
2022/05/15 06:27:46;;;;;;;8.23;1.90;;;14.00;97.40;;;;;;5108136;28;20180;-69
2022/05/15 06:30:12;;;;;;;4.00;1.67;;;14.20;95.60;;;;;;5107029;28;20192;-68
2022/05/15 06:32:39;;;;;;;4.10;1.60;;;14.30;97.10;;;;;;5108150;28;20308;-67
2022/05/15 06:35:06;;;;;;;4.43;1.43;;;14.40;99.30;;;;;;5108179;28;20514;-69
2022/05/15 06:37:32;;;;;;;4.43;1.97;;;14.60;99.80;;;;;;5107163;28;20459;-68
2022/05/15 06:39:58;;;;;;;4.40;1.97;;;14.70;99.90;;;;;;5108529;28;20497;-68
2022/05/15 06:42:23;;;;;;;4.27;1.87;;;14.90;99.90;;;;;;5107793;28;20669;-68
2022/05/15 06:44:49;;;;;;;4.73;1.80;;;15.10;99.70;;;;;;5107640;28;20742;-68
2022/05/15 06:47:15;;;;;;;7.80;2.17;;;15.20;98.10;;;;;;5104851;28;20262;-69
2022/05/15 06:49:41;;;;;;;4.50;2.23;;;15.40;97.20;;;;;;5107912;28;20183;-67
2022/05/15 06:52:07;;;;;;;2.10;1.30;;;15.50;96.90;;;;;;5107199;28;20659;-71
2022/05/15 06:54:32;;;;;;;5.70;1.70;;;15.60;96.10;;;;;;5072425;28;20583;-68
2022/05/15 06:59:42;;;;;;;2.53;1.30;;;15.90;94.70;;;;;;5095026;28;20218;-68
2022/05/15 07:02:08;;;;;;;3.77;1.63;;;16.20;95.00;;;;;;5107955;28;20519;-68
2022/05/15 07:04:34;;;;;;;2.90;1.57;;;16.40;93.70;;;;;;5107899;28;20659;-66
2022/05/15 07:07:00;;;;;;;2.90;1.00;;;16.60;93.60;;;;;;5107214;28;20196;-68
2022/05/15 07:09:27;;;;;;;3.37;1.20;;;16.90;91.20;;;;;;5107559;28;20193;-69
2022/05/15 07:11:53;;;;;;;3.60;1.40;;;17.10;91.20;;;;;;5107202;28;20806;-69
2022/05/15 07:14:18;;;;;;;2.57;0.90;;;17.40;88.70;;;;;;5107666;28;20428;-68
2022/05/15 07:16:44;;;;;;;6.60;1.00;;;17.70;87.30;;;;;;5107175;28;20204;-70
2022/05/15 07:19:10;;;;;;;4.10;1.37;;;18.20;85.40;;;;;;5108020;28;20237;-68
2022/05/15 07:21:35;;;;;;;3.83;1.37;;;18.70;81.50;;;;;;5106893;28;20195;-68
2022/05/15 07:24:01;;;;;;;7.73;1.57;;;19.00;80.70;;;;;;5107384;28;20190;-68
2022/05/15 07:26:27;;;;;;;6.10;1.60;;;19.30;79.30;;;;;;5106782;28;20347;-69
2022/05/15 07:28:52;;;;;;;4.03;1.73;;;19.80;78.40;;;;;;5107228;28;20176;-69
2022/05/15 07:31:20;;;;;;;3.57;1.23;;;20.20;80.00;;;;;;5107100;28;20274;-69
2022/05/15 07:33:47;;;;;;;4.63;1.00;;;21.20;77.70;;;;;;5106735;28;20657;-70
2022/05/15 07:36:13;;;;;;;3.50;1.30;;;22.00;75.00;;;;;;5106271;28;20931;-68
2022/05/15 07:38:39;;;;;;;4.47;1.43;;;23.40;72.60;;;;;;5106686;28;21129;-68
2022/05/15 07:41:04;;;;;;;4.40;1.50;;;24.70;66.20;;;;;;5106781;28;20409;-68
2022/05/15 07:43:30;;;;;;;9.80;1.30;;;24.80;65.00;;;;;;5107123;28;20183;-70
2022/05/15 07:45:56;;;;;;;2.72;1.13;;;24.70;68.80;;;;;;5106836;28;20688;-69
2022/05/15 07:48:22;;;;;;;5.70;1.95;;;25.80;65.80;;;;;;5105498;28;20179;-69
2022/05/15 07:50:48;;;;;;;4.15;1.05;;;24.80;66.10;;;;;;5105887;28;20190;-69
2022/05/15 07:53:14;;;;;;;2.17;1.30;;;25.10;68.90;;;;;;5106249;28;20206;-68
2022/05/15 07:55:40;;;;;;;5.68;1.60;;;25.70;66.50;;;;;;5106490;28;20202;-69
2022/05/15 07:58:06;;;;;;;5.47;1.70;;;26.80;62.90;;;;;;5106967;28;20640;-73
2022/05/15 08:00:32;;;;;;;5.38;1.45;;;27.00;61.50;;;;;;5106716;28;20201;-68
2022/05/15 08:03:07;;;;;;;2.47;1.20;;;25.80;62.80;;;;;;5106251;28;20182;-68
2022/05/15 08:08:18;;;;;;;4.28;1.65;;;25.60;64.80;;;;;;5106731;28;20510;-68
2022/05/15 08:10:44;;;;;;;2.67;1.35;;;27.20;60.60;;;;;;5106678;28;20657;-69
2022/05/15 08:13:16;;;;;;;3.15;1.38;;;26.00;61.80;;;;;;5106649;28;20183;-68
2022/05/15 08:15:43;;;;;;;2.38;1.23;;;25.60;64.20;;;;;;5105893;28;20199;-69
2022/05/15 08:23:44;;;;;;;3.28;0.90;;;25.80;63.60;;;;;;5106169;28;20185;-68
2022/05/15 08:26:11;;;;;;;5.53;1.00;;;25.80;62.60;;;;;;5106216;28;20199;-69
2022/05/15 08:28:37;;;;;;;3.00;1.05;;;25.60;63.60;;;;;;5105918;28;20187;-67
2022/05/15 08:31:06;;;;;;;11.25;1.73;;;25.40;62.30;;;;;;5106249;28;20171;-68
2022/05/15 08:33:33;;;;;;;2.65;1.15;;;25.90;63.10;;;;;;5106340;28;20665;-68
2022/05/15 08:35:59;;;;;;;2.80;1.10;;;26.30;60.40;;;;;;5105618;28;20678;-68
2022/05/15 08:38:25;;;;;;;4.95;1.30;;;26.60;59.70;;;;;;5105810;28;20187;-67
2022/05/15 08:41:19;;;;;;;4.13;1.30;;;26.50;62.40;;;;;;5106140;28;20195;-68
2022/05/15 08:44:07;;;;;;;2.80;1.33;;;26.70;60.60;;;;;;5095156;28;20273;-69
2022/05/15 08:46:50;;;;;;;5.78;1.08;;;26.90;59.40;;;;;;5106081;28;20284;-69
2022/05/15 08:49:31;;;;;;;2.70;1.27;;;26.90;59.10;;;;;;5105987;28;20225;-68
2022/05/15 08:52:18;;;;;;;6.63;1.50;;;26.80;58.70;;;;;;5105719;28;20295;-69
2022/05/15 08:54:52;;;;;;;2.60;1.15;;;26.90;58.70;;;;;;5110048;28;20275;-69
2022/05/15 08:57:26;;;;;;;2.10;1.00;;;26.50;61.40;;;;;;5110356;28;20582;-68
2022/05/15 08:59:56;;;;;;;3.92;1.30;;;25.70;61.80;;;;;;5110468;28;20187;-69
2022/05/15 09:02:23;;;;;;;2.00;1.02;;;26.30;62.50;;;;;;5109774;28;20325;-68
2022/05/15 09:04:54;;;;;;;2.35;1.30;;;26.80;59.90;;;;;;5109863;28;20191;-69
2022/05/15 09:07:42;;;;;;;5.38;1.70;;;27.10;60.40;;;;;;5109159;28;20275;-69
2022/05/15 09:10:19;;;;;;;3.88;1.25;;;26.30;62.90;;;;;;5109837;28;20210;-68
2022/05/15 09:12:50;;;;;;;5.55;1.23;;;27.30;58.80;;;;;;5096929;28;20596;-68
2022/05/15 09:15:21;;;;;;;4.78;1.50;;;27.40;59.50;;;;;;5109630;28;20694;-68
2022/05/15 09:18:02;;;;;;;3.22;1.30;;;27.40;58.70;;;;;;5109540;28;20298;-68
2022/05/15 09:20:39;;;;;;;2.53;0.98;;;27.00;60.80;;;;;;5109883;28;20179;-69
2022/05/15 09:23:16;;;;;;;2.03;1.00;;;26.70;63.30;;;;;;5108993;28;20646;-68
2022/05/15 09:25:42;;;;;;;2.85;1.48;;;26.60;63.50;;;;;;5110147;28;20207;-69
2022/05/15 09:28:11;;;;;;;1.80;1.00;;;27.20;59.90;;;;;;5109519;28;20449;-69
2022/05/15 09:30:42;;;;;;;5.20;1.48;;;27.10;59.80;;;;;;5109592;28;20203;-68
2022/05/15 09:33:28;;;;;;;9.38;1.65;;;26.20;62.20;;;;;;5109020;28;20328;-69
2022/05/15 09:36:19;;;;;;;2.35;1.27;;;26.30;62.20;;;;;;5109181;28;20329;-68
2022/05/15 09:38:45;;;;;;;2.85;1.13;;;26.20;66.50;;;;;;5097895;28;20175;-69
2022/05/15 09:44:26;;;;;;;6.80;1.60;;;26.60;64.40;;;;;;5109891;28;20189;-69
2022/05/15 09:47:03;;;;;;;10.63;1.25;;;26.80;62.10;;;;;;5107937;28;20248;-69
2022/05/15 09:49:33;;;;;;;2.40;1.15;;;27.10;60.40;;;;;;5109365;28;21032;-68
2022/05/15 09:52:01;;;;;;;1.75;0.90;;;26.40;62.20;;;;;;5108425;28;20680;-67
2022/05/15 09:54:40;;;;;;;3.05;1.10;;;26.20;63.40;;;;;;5109033;28;20634;-68
2022/05/15 09:57:18;;;;;;;2.50;1.55;;;26.20;62.30;;;;;;5109004;28;20205;-68
2022/05/15 09:59:59;;;;;;;2.45;1.08;;;26.60;62.50;;;;;;5096561;28;20190;-69
2022/05/15 10:02:26;;;;;;;2.28;1.20;;;26.00;66.10;;;;;;5108737;28;20444;-68
2022/05/15 10:04:53;;;;;;;4.22;1.55;;;26.20;63.50;;;;;;5108718;28;20179;-68
2022/05/15 10:07:35;;;;;;;5.88;1.55;;;26.50;61.20;;;;;;5107750;28;20234;-69
2022/05/15 10:10:23;;;;;;;7.78;1.73;;;26.30;60.70;;;;;;5105237;28;20762;-67
2022/05/15 10:13:04;;;;;;;2.67;1.45;;;25.50;65.10;;;;;;5096391;28;20710;-67
2022/05/15 10:15:38;;;;;;;3.00;1.33;;;25.30;66.20;;;;;;5108730;28;20234;-68
2022/05/15 10:18:04;;;;;;;4.07;1.70;;;25.30;66.80;;;;;;5108382;28;20536;-68
2022/05/15 10:20:34;;;;;;;2.43;1.00;;;25.00;65.90;;;;;;5108893;28;20187;-67
2022/05/15 10:23:03;;;;;;;2.60;1.40;;;25.30;65.40;;;;;;5108130;28;20228;-68
2022/05/15 10:25:52;;;;;;;3.33;1.20;;;25.00;67.70;;;;;;5108453;28;20555;-68
2022/05/15 10:28:55;;;;;;;3.00;1.50;;;24.50;66.60;;;;;;5059588;28;20445;-67
2022/05/15 10:31:25;;;;;;;5.17;1.43;;;24.50;67.80;;;;;;5108110;28;20463;-66
2022/05/15 10:34:03;;;;;;;3.53;1.13;;;24.80;69.40;;;;;;5108712;28;20413;-68
2022/05/15 10:36:53;;;;;;;3.50;1.53;;;25.00;65.60;;;;;;5107431;28;20951;-69
2022/05/15 10:39:51;;;;;;;9.27;1.70;;;24.80;66.70;;;;;;5108528;28;20543;-68
2022/05/15 10:42:28;;;;;;;4.00;0.80;;;25.00;66.40;;;;;;5064997;28;20937;-68
2022/05/15 10:44:57;;;;;;;1.77;0.90;;;25.00;65.80;;;;;;5107896;28;21105;-68
2022/05/15 10:47:31;;;;;;;2.77;1.23;;;25.00;65.10;;;;;;5108646;28;20801;-67
2022/05/15 10:50:27;;;;;;;6.10;1.47;;;24.90;68.40;;;;;;5083026;28;20456;-67
2022/05/15 10:59:21;;;;;;;2.60;1.27;;;25.10;65.30;;;;;;5102454;28;20396;-66
2022/05/15 11:01:56;;;;;;;3.40;1.47;;;25.00;66.10;;;;;;5102654;28;20470;-68
2022/05/15 11:04:41;;;;;;;6.00;1.67;;;25.10;68.30;;;;;;5107825;28;20449;-68
2022/05/15 11:07:28;;;;;;;2.30;1.20;;;25.20;66.30;;;;;;5107061;28;20886;-68
2022/05/15 11:10:13;;;;;;;3.40;1.10;;;25.30;63.90;;;;;;5107680;28;20470;-67
2022/05/15 11:13:11;;;;;;;3.30;1.40;;;25.30;65.50;;;;;;5094550;28;20912;-68
2022/05/15 11:15:49;;;;;;;2.63;1.03;;;25.30;64.30;;;;;;5107328;28;20476;-66
2022/05/15 11:18:55;;;;;;;4.20;1.73;;;25.20;66.10;;;;;;5107085;28;20720;-68
2022/05/15 11:21:31;;;;;;;3.83;1.60;;;25.30;65.10;;;;;;5098771;28;20420;-67
2022/05/15 11:24:08;;;;;;;4.57;1.50;;;25.00;65.20;;;;;;5093622;28;20722;-68
2022/05/15 11:26:59;;;;;;;2.93;1.33;;;25.10;67.90;;;;;;5106921;28;20946;-69
2022/05/15 11:29:26;;;;;;;3.13;1.10;;;25.10;66.80;;;;;;5099294;28;20469;-68
2022/05/15 11:31:56;;;;;;;4.67;1.10;;;25.30;68.60;;;;;;5106445;28;20911;-68
2022/05/15 11:35:00;;;;;;;3.17;1.17;;;25.50;66.90;;;;;;5107234;28;20497;-68
2022/05/15 11:37:38;;;;;;;3.27;1.30;;;25.80;66.40;;;;;;5097303;28;20910;-68
2022/05/15 11:40:08;;;;;;;2.20;1.07;;;25.50;63.30;;;;;;5106681;28;20425;-69
2022/05/15 11:42:33;;;;;;;2.90;1.27;;;25.80;63.00;;;;;;5106475;28;21023;-68
2022/05/15 11:45:28;;;;;;;1.90;1.03;;;25.80;65.50;;;;;;5106718;28;20531;-67
2022/05/15 11:48:11;;;;;;;3.40;1.20;;;25.70;65.30;;;;;;5105502;28;20195;-68
2022/05/15 11:50:51;;;;;;;3.63;1.50;;;25.80;62.90;;;;;;5100079;28;20476;-67
2022/05/15 11:53:31;;;;;;;15.03;1.30;;;25.50;66.50;;;;;;5097421;28;20416;-67
2022/05/15 11:55:58;;;;;;;1.93;1.00;;;25.50;65.40;;;;;;5106752;28;20987;-68
2022/05/15 11:58:36;;;;;;;2.37;1.07;;;25.70;63.30;;;;;;5106891;28;20477;-66
2022/05/15 12:01:10;;;;;;;3.27;1.57;;;25.90;64.50;;;;;;5106700;28;20764;-68
2022/05/15 12:03:39;;;;;;;4.17;1.73;;;25.60;63.40;;;;;;5106614;28;20428;-67
2022/05/15 12:06:04;;;;;;;5.47;1.33;;;25.60;65.40;;;;;;5105969;28;21155;-68
2022/05/15 12:08:34;;;;;;;5.00;0.90;;;25.80;63.20;;;;;;5105978;28;20187;-67
2022/05/15 12:11:18;;;;;;;3.73;1.17;;;26.10;62.60;;;;;;5106297;28;20582;-67
2022/05/15 12:13:45;;;;;;;2.30;1.10;;;26.10;64.50;;;;;;5106115;28;20420;-66
2022/05/15 12:16:17;;;;;;;7.53;1.63;;;26.20;62.70;;;;;;5106521;28;20245;-67
2022/05/15 12:18:43;;;;;;;4.60;1.57;;;26.00;62.10;;;;;;5106748;28;20421;-68
2022/05/15 12:21:13;;;;;;;1.93;1.17;;;26.10;62.70;;;;;;5106250;28;20579;-67
2022/05/15 12:26:48;;;;;;;2.80;1.50;;;26.40;60.90;;;;;;5106081;28;20444;-67
2022/05/15 12:29:31;;;;;;;3.70;1.20;;;26.30;62.50;;;;;;5104855;28;20457;-67
2022/05/15 12:31:56;;;;;;;7.30;1.33;;;26.50;64.50;;;;;;5105783;28;20179;-67
2022/05/15 12:34:38;;;;;;;4.23;1.37;;;26.40;66.60;;;;;;5106269;28;20179;-68
2022/05/15 12:37:11;;;;;;;4.90;1.17;;;26.40;62.20;;;;;;5077691;28;20172;-68
2022/05/15 12:39:43;;;;;;;4.10;1.30;;;26.30;64.70;;;;;;5101535;28;20628;-65
2022/05/15 12:42:16;;;;;;;2.70;1.70;;;26.40;59.60;;;;;;5106167;28;20179;-67
2022/05/15 12:44:42;;;;;;;3.23;1.77;;;26.60;59.20;;;;;;5106649;28;20205;-67
2022/05/15 12:47:24;;;;;;;2.30;1.27;;;26.80;60.90;;;;;;5105397;28;20636;-68
2022/05/15 12:49:59;;;;;;;2.70;1.30;;;26.40;59.80;;;;;;5106557;28;20202;-65
2022/05/15 12:52:31;;;;;;;8.43;1.37;;;26.60;59.40;;;;;;5105634;28;20576;-67
2022/05/15 12:55:06;;;;;;;27.63;1.60;;;27.00;57.90;;;;;;5106096;28;20729;-67
2022/05/15 12:57:41;;;;;;;7.80;1.93;;;26.80;60.80;;;;;;5106171;28;20755;-68
2022/05/15 13:00:12;;;;;;;4.73;1.20;;;26.50;59.10;;;;;;5106942;28;20190;-69
2022/05/15 13:02:38;;;;;;;2.40;1.20;;;26.50;59.90;;;;;;5106408;28;20179;-67
2022/05/15 13:05:17;;;;;;;2.20;1.13;;;26.40;61.10;;;;;;5106455;28;20217;-68
2022/05/15 13:07:43;;;;;;;2.37;1.03;;;26.70;58.30;;;;;;5106069;28;20185;-69
2022/05/15 13:10:12;;;;;;;2.50;0.80;;;26.90;60.10;;;;;;5106153;28;20207;-68
2022/05/15 13:12:50;;;;;;;5.23;1.50;;;26.70;58.90;;;;;;5106943;28;20642;-68
2022/05/15 13:15:20;;;;;;;2.50;1.23;;;26.50;60.50;;;;;;5087894;28;20440;-68
2022/05/15 13:17:48;;;;;;;6.43;1.20;;;26.60;62.40;;;;;;5105645;28;20171;-68
2022/05/15 13:20:17;;;;;;;2.43;1.10;;;27.00;59.10;;;;;;5106025;28;20191;-67
2022/05/15 13:22:43;;;;;;;5.07;1.50;;;26.60;59.50;;;;;;5105625;28;20179;-69
2022/05/15 13:25:17;;;;;;;2.10;1.10;;;26.60;60.30;;;;;;5105650;28;20199;-67
2022/05/15 13:27:46;;;;;;;1.97;0.90;;;26.80;60.90;;;;;;5082368;28;20279;-67
2022/05/15 13:30:16;;;;;;;2.93;1.30;;;26.80;59.70;;;;;;5105074;28;20314;-67